sensor_id;sensor_type;location;lat;lon;timestamp;P1;durP1;ratioP1;P2;durP2;ratioP2
70899;SDS011;67902;52.154;5.430;2023-04-03T00:00:57;5.05;;;1.40;;
70899;SDS011;67902;52.154;5.430;2023-04-03T00:03:24;5.32;;;1.30;;
70899;SDS011;67902;52.154;5.430;2023-04-03T00:05:51;4.78;;;1.23;;
70899;SDS011;67902;52.154;5.430;2023-04-03T00:08:17;5.88;;;1.52;;
70899;SDS011;67902;52.154;5.430;2023-04-03T00:10:44;7.28;;;1.45;;
70899;SDS011;67902;52.154;5.430;2023-04-03T00:13:10;5.00;;;1.30;;
70899;SDS011;67902;52.154;5.430;2023-04-03T00:15:37;3.65;;;1.17;;
70899;SDS011;67902;52.154;5.430;2023-04-03T00:18:05;5.10;;;1.50;;
70899;SDS011;67902;52.154;5.430;2023-04-03T00:20:32;6.43;;;1.40;;
70899;SDS011;67902;52.154;5.430;2023-04-03T00:23:00;5.47;;;1.25;;
70899;SDS011;67902;52.154;5.430;2023-04-03T00:25:27;4.63;;;1.30;;
70899;SDS011;67902;52.154;5.430;2023-04-03T00:27:53;5.28;;;1.30;;
70899;SDS011;67902;52.154;5.430;2023-04-03T00:30:20;4.28;;;1.25;;
70899;SDS011;67902;52.154;5.430;2023-04-03T00:32:49;3.63;;;1.27;;
70899;SDS011;67902;52.154;5.430;2023-04-03T00:35:17;5.20;;;1.50;;
70899;SDS011;67902;52.154;5.430;2023-04-03T00:37:45;5.38;;;1.30;;
70899;SDS011;67902;52.154;5.430;2023-04-03T00:40:14;4.05;;;1.20;;
70899;SDS011;67902;52.154;5.430;2023-04-03T00:47:38;6.47;;;1.10;;
70899;SDS011;67902;52.154;5.430;2023-04-03T00:50:07;8.10;;;1.58;;
70899;SDS011;67902;52.154;5.430;2023-04-03T00:52:33;3.70;;;1.08;;
70899;SDS011;67902;52.154;5.430;2023-04-03T00:55:02;4.65;;;1.40;;
70899;SDS011;67902;52.154;5.430;2023-04-03T00:57:31;6.85;;;1.30;;
70899;SDS011;67902;52.154;5.430;2023-04-03T01:00:04;4.93;;;1.63;;
70899;SDS011;67902;52.154;5.430;2023-04-03T01:02:35;4.43;;;1.45;;
70899;SDS011;67902;52.154;5.430;2023-04-03T01:05:02;4.72;;;1.45;;
70899;SDS011;67902;52.154;5.430;2023-04-03T01:07:30;4.70;;;1.40;;
70899;SDS011;67902;52.154;5.430;2023-04-03T01:09:58;5.03;;;1.30;;
70899;SDS011;67902;52.154;5.430;2023-04-03T01:14:56;7.18;;;1.60;;
70899;SDS011;67902;52.154;5.430;2023-04-03T01:17:28;6.03;;;1.33;;
70899;SDS011;67902;52.154;5.430;2023-04-03T01:20:21;8.13;;;1.40;;
70899;SDS011;67902;52.154;5.430;2023-04-03T01:28:03;9.48;;;1.30;;
70899;SDS011;67902;52.154;5.430;2023-04-03T01:30:32;5.25;;;1.60;;
70899;SDS011;67902;52.154;5.430;2023-04-03T01:33:02;5.65;;;1.52;;
70899;SDS011;67902;52.154;5.430;2023-04-03T01:35:29;6.05;;;1.40;;
70899;SDS011;67902;52.154;5.430;2023-04-03T01:37:56;4.25;;;1.25;;
70899;SDS011;67902;52.154;5.430;2023-04-03T01:40:22;4.15;;;1.33;;
70899;SDS011;67902;52.154;5.430;2023-04-03T01:42:49;5.05;;;1.35;;
70899;SDS011;67902;52.154;5.430;2023-04-03T01:45:15;5.78;;;1.45;;
70899;SDS011;67902;52.154;5.430;2023-04-03T01:47:41;7.90;;;1.80;;
70899;SDS011;67902;52.154;5.430;2023-04-03T01:50:08;5.03;;;1.40;;
70899;SDS011;67902;52.154;5.430;2023-04-03T01:52:35;4.70;;;1.50;;
70899;SDS011;67902;52.154;5.430;2023-04-03T01:55:01;5.25;;;1.50;;
70899;SDS011;67902;52.154;5.430;2023-04-03T01:57:28;4.55;;;1.30;;
70899;SDS011;67902;52.154;5.430;2023-04-03T01:59:54;8.23;;;1.83;;
70899;SDS011;67902;52.154;5.430;2023-04-03T02:02:21;3.95;;;1.40;;
70899;SDS011;67902;52.154;5.430;2023-04-03T02:04:47;4.13;;;1.27;;
70899;SDS011;67902;52.154;5.430;2023-04-03T02:07:13;9.90;;;1.70;;
70899;SDS011;67902;52.154;5.430;2023-04-03T02:09:40;6.20;;;1.55;;
70899;SDS011;67902;52.154;5.430;2023-04-03T02:12:06;5.82;;;1.83;;
70899;SDS011;67902;52.154;5.430;2023-04-03T02:14:32;4.53;;;1.35;;
70899;SDS011;67902;52.154;5.430;2023-04-03T02:17:00;5.97;;;1.60;;
70899;SDS011;67902;52.154;5.430;2023-04-03T02:19:27;5.40;;;1.52;;
70899;SDS011;67902;52.154;5.430;2023-04-03T02:21:53;5.00;;;1.33;;
70899;SDS011;67902;52.154;5.430;2023-04-03T02:24:19;4.75;;;1.40;;
70899;SDS011;67902;52.154;5.430;2023-04-03T02:26:47;6.53;;;1.83;;
70899;SDS011;67902;52.154;5.430;2023-04-03T02:29:14;5.82;;;1.73;;
70899;SDS011;67902;52.154;5.430;2023-04-03T02:31:40;4.55;;;1.55;;
70899;SDS011;67902;52.154;5.430;2023-04-03T02:34:07;7.75;;;1.90;;
70899;SDS011;67902;52.154;5.430;2023-04-03T02:36:33;4.70;;;1.38;;
70899;SDS011;67902;52.154;5.430;2023-04-03T02:38:59;5.45;;;1.80;;
70899;SDS011;67902;52.154;5.430;2023-04-03T02:41:26;8.77;;;1.58;;
70899;SDS011;67902;52.154;5.430;2023-04-03T02:44:00;4.93;;;1.67;;
70899;SDS011;67902;52.154;5.430;2023-04-03T02:46:31;5.53;;;1.50;;
70899;SDS011;67902;52.154;5.430;2023-04-03T02:48:58;6.75;;;1.73;;
70899;SDS011;67902;52.154;5.430;2023-04-03T02:51:24;4.43;;;1.63;;
70899;SDS011;67902;52.154;5.430;2023-04-03T02:53:51;6.47;;;1.60;;
70899;SDS011;67902;52.154;5.430;2023-04-03T02:56:17;6.63;;;1.60;;
70899;SDS011;67902;52.154;5.430;2023-04-03T02:58:45;4.65;;;1.45;;
70899;SDS011;67902;52.154;5.430;2023-04-03T03:01:11;4.97;;;1.55;;
70899;SDS011;67902;52.154;5.430;2023-04-03T03:03:38;5.00;;;1.80;;
70899;SDS011;67902;52.154;5.430;2023-04-03T03:06:06;6.63;;;1.50;;
70899;SDS011;67902;52.154;5.430;2023-04-03T03:08:34;4.35;;;1.35;;
70899;SDS011;67902;52.154;5.430;2023-04-03T03:11:01;4.78;;;1.35;;
70899;SDS011;67902;52.154;5.430;2023-04-03T03:13:28;3.80;;;1.48;;
70899;SDS011;67902;52.154;5.430;2023-04-03T03:15:55;8.02;;;1.80;;
70899;SDS011;67902;52.154;5.430;2023-04-03T03:18:21;5.63;;;1.63;;
70899;SDS011;67902;52.154;5.430;2023-04-03T03:20:52;4.68;;;1.40;;
70899;SDS011;67902;52.154;5.430;2023-04-03T03:23:20;7.38;;;1.70;;
70899;SDS011;67902;52.154;5.430;2023-04-03T03:25:47;7.00;;;1.75;;
70899;SDS011;67902;52.154;5.430;2023-04-03T03:28:14;4.82;;;1.27;;
70899;SDS011;67902;52.154;5.430;2023-04-03T03:30:41;6.63;;;1.83;;
70899;SDS011;67902;52.154;5.430;2023-04-03T03:33:07;6.68;;;1.70;;
70899;SDS011;67902;52.154;5.430;2023-04-03T03:35:34;5.47;;;1.48;;
70899;SDS011;67902;52.154;5.430;2023-04-03T03:38:01;6.35;;;1.60;;
70899;SDS011;67902;52.154;5.430;2023-04-03T03:40:28;5.35;;;1.70;;
70899;SDS011;67902;52.154;5.430;2023-04-03T03:42:54;8.43;;;1.98;;
70899;SDS011;67902;52.154;5.430;2023-04-03T03:45:20;7.47;;;1.83;;
70899;SDS011;67902;52.154;5.430;2023-04-03T03:47:47;6.15;;;1.88;;
70899;SDS011;67902;52.154;5.430;2023-04-03T03:50:13;5.60;;;2.00;;
70899;SDS011;67902;52.154;5.430;2023-04-03T03:52:40;8.40;;;2.35;;
70899;SDS011;67902;52.154;5.430;2023-04-03T03:55:07;8.40;;;1.98;;
70899;SDS011;67902;52.154;5.430;2023-04-03T03:57:34;5.10;;;1.55;;
70899;SDS011;67902;52.154;5.430;2023-04-03T04:00:00;6.80;;;1.60;;
70899;SDS011;67902;52.154;5.430;2023-04-03T04:02:27;7.38;;;1.77;;
70899;SDS011;67902;52.154;5.430;2023-04-03T04:04:53;9.10;;;2.13;;
70899;SDS011;67902;52.154;5.430;2023-04-03T04:07:20;10.00;;;2.22;;
70899;SDS011;67902;52.154;5.430;2023-04-03T04:09:46;8.93;;;2.30;;
70899;SDS011;67902;52.154;5.430;2023-04-03T04:12:13;7.85;;;2.35;;
70899;SDS011;67902;52.154;5.430;2023-04-03T04:14:39;9.38;;;2.13;;
70899;SDS011;67902;52.154;5.430;2023-04-03T04:17:06;7.10;;;2.30;;
70899;SDS011;67902;52.154;5.430;2023-04-03T04:19:32;7.70;;;1.92;;
70899;SDS011;67902;52.154;5.430;2023-04-03T04:21:59;6.05;;;1.70;;
70899;SDS011;67902;52.154;5.430;2023-04-03T04:24:25;7.75;;;2.22;;
70899;SDS011;67902;52.154;5.430;2023-04-03T04:26:52;6.95;;;2.03;;
70899;SDS011;67902;52.154;5.430;2023-04-03T04:29:18;7.00;;;1.70;;
70899;SDS011;67902;52.154;5.430;2023-04-03T04:31:45;7.78;;;2.15;;
70899;SDS011;67902;52.154;5.430;2023-04-03T04:34:11;7.95;;;1.60;;
70899;SDS011;67902;52.154;5.430;2023-04-03T04:36:39;7.40;;;2.05;;
70899;SDS011;67902;52.154;5.430;2023-04-03T04:39:06;7.82;;;2.28;;
70899;SDS011;67902;52.154;5.430;2023-04-03T04:41:33;5.78;;;1.95;;
70899;SDS011;67902;52.154;5.430;2023-04-03T04:44:00;5.35;;;1.98;;
70899;SDS011;67902;52.154;5.430;2023-04-03T04:46:26;7.57;;;1.92;;
70899;SDS011;67902;52.154;5.430;2023-04-03T04:48:53;4.95;;;1.63;;
70899;SDS011;67902;52.154;5.430;2023-04-03T04:51:19;5.95;;;1.88;;
70899;SDS011;67902;52.154;5.430;2023-04-03T04:53:46;6.40;;;2.20;;
70899;SDS011;67902;52.154;5.430;2023-04-03T04:56:13;6.28;;;1.75;;
70899;SDS011;67902;52.154;5.430;2023-04-03T04:58:39;7.40;;;1.83;;
70899;SDS011;67902;52.154;5.430;2023-04-03T05:01:06;7.18;;;2.00;;
70899;SDS011;67902;52.154;5.430;2023-04-03T05:03:35;7.57;;;2.10;;
70899;SDS011;67902;52.154;5.430;2023-04-03T05:06:02;7.78;;;2.20;;
70899;SDS011;67902;52.154;5.430;2023-04-03T05:08:29;12.35;;;2.20;;
70899;SDS011;67902;52.154;5.430;2023-04-03T05:10:55;7.57;;;2.05;;
70899;SDS011;67902;52.154;5.430;2023-04-03T05:13:22;6.63;;;2.00;;
70899;SDS011;67902;52.154;5.430;2023-04-03T05:15:48;6.50;;;2.05;;
70899;SDS011;67902;52.154;5.430;2023-04-03T05:18:15;6.15;;;1.95;;
70899;SDS011;67902;52.154;5.430;2023-04-03T05:20:41;5.97;;;1.95;;
70899;SDS011;67902;52.154;5.430;2023-04-03T05:23:09;6.03;;;1.75;;
70899;SDS011;67902;52.154;5.430;2023-04-03T05:25:37;8.82;;;2.33;;
70899;SDS011;67902;52.154;5.430;2023-04-03T05:28:04;8.50;;;2.33;;
70899;SDS011;67902;52.154;5.430;2023-04-03T05:30:31;7.43;;;1.63;;
70899;SDS011;67902;52.154;5.430;2023-04-03T05:32:58;4.10;;;1.50;;
70899;SDS011;67902;52.154;5.430;2023-04-03T05:35:25;4.88;;;1.58;;
70899;SDS011;67902;52.154;5.430;2023-04-03T05:37:51;7.32;;;1.70;;
70899;SDS011;67902;52.154;5.430;2023-04-03T05:40:18;6.55;;;2.05;;
70899;SDS011;67902;52.154;5.430;2023-04-03T05:42:45;8.27;;;2.05;;
70899;SDS011;67902;52.154;5.430;2023-04-03T05:45:11;6.53;;;1.77;;
70899;SDS011;67902;52.154;5.430;2023-04-03T05:47:37;6.15;;;1.90;;
70899;SDS011;67902;52.154;5.430;2023-04-03T05:50:04;8.70;;;1.90;;
70899;SDS011;67902;52.154;5.430;2023-04-03T05:52:33;6.95;;;1.92;;
70899;SDS011;67902;52.154;5.430;2023-04-03T05:55:02;5.38;;;1.65;;
70899;SDS011;67902;52.154;5.430;2023-04-03T05:57:29;6.82;;;2.13;;
70899;SDS011;67902;52.154;5.430;2023-04-03T05:59:56;8.32;;;1.92;;
70899;SDS011;67902;52.154;5.430;2023-04-03T06:02:23;6.10;;;1.75;;
70899;SDS011;67902;52.154;5.430;2023-04-03T06:04:50;5.32;;;1.90;;
70899;SDS011;67902;52.154;5.430;2023-04-03T06:07:18;8.77;;;1.70;;
70899;SDS011;67902;52.154;5.430;2023-04-03T06:09:47;5.90;;;1.80;;
70899;SDS011;67902;52.154;5.430;2023-04-03T06:12:14;5.28;;;1.63;;
70899;SDS011;67902;52.154;5.430;2023-04-03T06:14:41;7.95;;;2.08;;
70899;SDS011;67902;52.154;5.430;2023-04-03T06:17:07;5.50;;;1.83;;
70899;SDS011;67902;52.154;5.430;2023-04-03T06:19:35;7.15;;;1.90;;
70899;SDS011;67902;52.154;5.430;2023-04-03T06:22:02;7.40;;;2.03;;
70899;SDS011;67902;52.154;5.430;2023-04-03T06:24:29;7.78;;;2.13;;
70899;SDS011;67902;52.154;5.430;2023-04-03T06:26:56;7.40;;;1.80;;
70899;SDS011;67902;52.154;5.430;2023-04-03T06:29:24;6.45;;;2.10;;
70899;SDS011;67902;52.154;5.430;2023-04-03T06:31:51;7.07;;;1.88;;
70899;SDS011;67902;52.154;5.430;2023-04-03T06:34:18;6.85;;;2.13;;
70899;SDS011;67902;52.154;5.430;2023-04-03T06:36:44;6.22;;;1.65;;
70899;SDS011;67902;52.154;5.430;2023-04-03T06:39:16;8.10;;;1.67;;
70899;SDS011;67902;52.154;5.430;2023-04-03T06:41:44;8.32;;;1.90;;
70899;SDS011;67902;52.154;5.430;2023-04-03T06:44:10;6.22;;;1.65;;
70899;SDS011;67902;52.154;5.430;2023-04-03T06:46:39;8.00;;;1.67;;
70899;SDS011;67902;52.154;5.430;2023-04-03T06:49:05;6.30;;;1.70;;
70899;SDS011;67902;52.154;5.430;2023-04-03T06:51:36;6.45;;;2.00;;
70899;SDS011;67902;52.154;5.430;2023-04-03T06:54:04;7.10;;;2.13;;
70899;SDS011;67902;52.154;5.430;2023-04-03T06:56:31;5.93;;;1.80;;
70899;SDS011;67902;52.154;5.430;2023-04-03T06:58:58;6.43;;;1.83;;
70899;SDS011;67902;52.154;5.430;2023-04-03T07:01:25;6.50;;;1.85;;
70899;SDS011;67902;52.154;5.430;2023-04-03T07:03:54;7.05;;;2.10;;
70899;SDS011;67902;52.154;5.430;2023-04-03T07:06:21;5.90;;;1.70;;
70899;SDS011;67902;52.154;5.430;2023-04-03T07:08:48;6.35;;;1.80;;
70899;SDS011;67902;52.154;5.430;2023-04-03T07:11:15;8.73;;;2.03;;
70899;SDS011;67902;52.154;5.430;2023-04-03T07:13:41;8.50;;;2.00;;
70899;SDS011;67902;52.154;5.430;2023-04-03T07:16:08;6.30;;;1.70;;
70899;SDS011;67902;52.154;5.430;2023-04-03T07:18:35;8.75;;;2.20;;
70899;SDS011;67902;52.154;5.430;2023-04-03T07:21:02;6.22;;;1.60;;
70899;SDS011;67902;52.154;5.430;2023-04-03T07:23:29;6.70;;;1.98;;
70899;SDS011;67902;52.154;5.430;2023-04-03T07:25:56;7.47;;;1.75;;
70899;SDS011;67902;52.154;5.430;2023-04-03T07:28:23;6.85;;;1.95;;
70899;SDS011;67902;52.154;5.430;2023-04-03T07:30:50;7.05;;;2.25;;
70899;SDS011;67902;52.154;5.430;2023-04-03T07:33:25;6.85;;;1.85;;
70899;SDS011;67902;52.154;5.430;2023-04-03T07:35:52;6.10;;;1.50;;
70899;SDS011;67902;52.154;5.430;2023-04-03T07:38:18;6.13;;;1.80;;
70899;SDS011;67902;52.154;5.430;2023-04-03T07:40:46;9.18;;;1.80;;
70899;SDS011;67902;52.154;5.430;2023-04-03T07:43:14;5.75;;;1.63;;
70899;SDS011;67902;52.154;5.430;2023-04-03T07:45:44;8.02;;;1.95;;
70899;SDS011;67902;52.154;5.430;2023-04-03T07:48:11;7.32;;;1.90;;
70899;SDS011;67902;52.154;5.430;2023-04-03T07:50:41;7.32;;;2.00;;
70899;SDS011;67902;52.154;5.430;2023-04-03T07:53:08;7.05;;;1.50;;
70899;SDS011;67902;52.154;5.430;2023-04-03T07:55:34;5.90;;;1.85;;
70899;SDS011;67902;52.154;5.430;2023-04-03T07:58:03;10.45;;;1.60;;
70899;SDS011;67902;52.154;5.430;2023-04-03T08:00:30;6.47;;;1.50;;
70899;SDS011;67902;52.154;5.430;2023-04-03T08:02:57;6.57;;;1.70;;
70899;SDS011;67902;52.154;5.430;2023-04-03T08:05:23;9.90;;;2.00;;
70899;SDS011;67902;52.154;5.430;2023-04-03T08:07:50;5.32;;;1.23;;
70899;SDS011;67902;52.154;5.430;2023-04-03T08:10:16;9.20;;;1.60;;
70899;SDS011;67902;52.154;5.430;2023-04-03T08:12:45;5.63;;;1.52;;
70899;SDS011;67902;52.154;5.430;2023-04-03T08:15:13;6.18;;;1.50;;
70899;SDS011;67902;52.154;5.430;2023-04-03T08:17:40;6.85;;;1.30;;
70899;SDS011;67902;52.154;5.430;2023-04-03T08:20:07;5.60;;;1.52;;
70899;SDS011;67902;52.154;5.430;2023-04-03T08:25:00;5.75;;;1.60;;
70899;SDS011;67902;52.154;5.430;2023-04-03T08:27:27;9.20;;;2.20;;
70899;SDS011;67902;52.154;5.430;2023-04-03T08:29:55;5.53;;;1.55;;
70899;SDS011;67902;52.154;5.430;2023-04-03T08:32:23;7.38;;;1.70;;
70899;SDS011;67902;52.154;5.430;2023-04-03T08:34:51;6.85;;;1.60;;
70899;SDS011;67902;52.154;5.430;2023-04-03T08:37:18;7.15;;;1.50;;
70899;SDS011;67902;52.154;5.430;2023-04-03T08:39:45;4.95;;;1.40;;
70899;SDS011;67902;52.154;5.430;2023-04-03T08:45:12;6.90;;;1.63;;
70899;SDS011;67902;52.154;5.430;2023-04-03T08:50:25;4.95;;;1.48;;
70899;SDS011;67902;52.154;5.430;2023-04-03T08:52:56;4.78;;;1.30;;
70899;SDS011;67902;52.154;5.430;2023-04-03T08:55:32;4.13;;;1.00;;
70899;SDS011;67902;52.154;5.430;2023-04-03T08:58:06;3.03;;;1.00;;
70899;SDS011;67902;52.154;5.430;2023-04-03T09:03:15;2.90;;;0.90;;
70899;SDS011;67902;52.154;5.430;2023-04-03T09:08:32;3.65;;;1.05;;
70899;SDS011;67902;52.154;5.430;2023-04-03T09:11:09;3.25;;;0.80;;
70899;SDS011;67902;52.154;5.430;2023-04-03T09:16:25;4.32;;;0.90;;
70899;SDS011;67902;52.154;5.430;2023-04-03T09:21:58;4.18;;;0.88;;
70899;SDS011;67902;52.154;5.430;2023-04-03T09:24:27;3.05;;;0.80;;
70899;SDS011;67902;52.154;5.430;2023-04-03T09:27:00;3.55;;;0.75;;
70899;SDS011;67902;52.154;5.430;2023-04-03T09:29:30;3.15;;;0.82;;
70899;SDS011;67902;52.154;5.430;2023-04-03T09:31:57;5.05;;;0.90;;
70899;SDS011;67902;52.154;5.430;2023-04-03T09:34:28;4.60;;;1.08;;
70899;SDS011;67902;52.154;5.430;2023-04-03T09:37:03;2.10;;;0.70;;
70899;SDS011;67902;52.154;5.430;2023-04-03T09:39:33;3.10;;;0.80;;
70899;SDS011;67902;52.154;5.430;2023-04-03T09:44:55;2.58;;;0.80;;
70899;SDS011;67902;52.154;5.430;2023-04-03T09:47:32;5.32;;;0.80;;
70899;SDS011;67902;52.154;5.430;2023-04-03T09:52:46;3.72;;;0.80;;
70899;SDS011;67902;52.154;5.430;2023-04-03T09:55:22;2.63;;;0.68;;
70899;SDS011;67902;52.154;5.430;2023-04-03T09:58:00;1.83;;;0.60;;
70899;SDS011;67902;52.154;5.430;2023-04-03T10:00:33;3.60;;;0.68;;
70899;SDS011;67902;52.154;5.430;2023-04-03T10:05:37;8.35;;;0.88;;
70899;SDS011;67902;52.154;5.430;2023-04-03T10:10:41;1.70;;;0.60;;
70899;SDS011;67902;52.154;5.430;2023-04-03T10:13:11;4.38;;;0.80;;
70899;SDS011;67902;52.154;5.430;2023-04-03T10:15:50;3.22;;;0.80;;
70899;SDS011;67902;52.154;5.430;2023-04-03T10:18:28;4.03;;;0.88;;
70899;SDS011;67902;52.154;5.430;2023-04-03T10:21:29;2.25;;;0.60;;
70899;SDS011;67902;52.154;5.430;2023-04-03T10:24:01;2.95;;;0.77;;
70899;SDS011;67902;52.154;5.430;2023-04-03T10:29:36;3.85;;;0.93;;
70899;SDS011;67902;52.154;5.430;2023-04-03T10:34:46;4.32;;;0.70;;
70899;SDS011;67902;52.154;5.430;2023-04-03T10:37:30;3.45;;;0.70;;
70899;SDS011;67902;52.154;5.430;2023-04-03T10:40:19;3.30;;;0.98;;
70899;SDS011;67902;52.154;5.430;2023-04-03T10:43:13;3.28;;;0.82;;
70899;SDS011;67902;52.154;5.430;2023-04-03T10:48:25;3.65;;;1.02;;
70899;SDS011;67902;52.154;5.430;2023-04-03T10:51:04;3.55;;;0.90;;
70899;SDS011;67902;52.154;5.430;2023-04-03T10:53:55;3.90;;;0.70;;
70899;SDS011;67902;52.154;5.430;2023-04-03T10:57:10;5.35;;;0.80;;
70899;SDS011;67902;52.154;5.430;2023-04-03T11:04:55;3.03;;;0.82;;
70899;SDS011;67902;52.154;5.430;2023-04-03T11:07:28;3.42;;;1.02;;
70899;SDS011;67902;52.154;5.430;2023-04-03T11:10:10;3.65;;;0.90;;
70899;SDS011;67902;52.154;5.430;2023-04-03T11:12:51;2.90;;;0.80;;
70899;SDS011;67902;52.154;5.430;2023-04-03T11:15:21;2.47;;;0.63;;
70899;SDS011;67902;52.154;5.430;2023-04-03T11:20:29;3.15;;;0.93;;
70899;SDS011;67902;52.154;5.430;2023-04-03T11:23:19;3.40;;;0.98;;
70899;SDS011;67902;52.154;5.430;2023-04-03T11:25:49;5.53;;;0.90;;
70899;SDS011;67902;52.154;5.430;2023-04-03T11:28:19;4.32;;;1.27;;
70899;SDS011;67902;52.154;5.430;2023-04-03T11:30:49;4.00;;;0.90;;
70899;SDS011;67902;52.154;5.430;2023-04-03T11:33:47;3.65;;;1.17;;
70899;SDS011;67902;52.154;5.430;2023-04-03T11:36:29;2.42;;;0.70;;
70899;SDS011;67902;52.154;5.430;2023-04-03T11:42:14;2.75;;;0.80;;
70899;SDS011;67902;52.154;5.430;2023-04-03T11:44:44;2.22;;;0.70;;
70899;SDS011;67902;52.154;5.430;2023-04-03T11:47:11;3.55;;;0.80;;
70899;SDS011;67902;52.154;5.430;2023-04-03T11:49:59;3.65;;;0.80;;
70899;SDS011;67902;52.154;5.430;2023-04-03T12:06:42;4.07;;;1.10;;
70899;SDS011;67902;52.154;5.430;2023-04-03T12:16:08;3.50;;;1.00;;
70899;SDS011;67902;52.154;5.430;2023-04-03T12:22:09;1.90;;;0.80;;
70899;SDS011;67902;52.154;5.430;2023-04-03T12:24:42;4.55;;;1.17;;
70899;SDS011;67902;52.154;5.430;2023-04-03T12:30:12;4.90;;;1.20;;
70899;SDS011;67902;52.154;5.430;2023-04-03T12:38:16;4.18;;;1.08;;
70899;SDS011;67902;52.154;5.430;2023-04-03T12:46:52;7.30;;;1.20;;
70899;SDS011;67902;52.154;5.430;2023-04-03T12:51:46;4.50;;;1.13;;
70899;SDS011;67902;52.154;5.430;2023-04-03T12:56:42;5.07;;;1.20;;
70899;SDS011;67902;52.154;5.430;2023-04-03T13:01:58;4.40;;;1.10;;
70899;SDS011;67902;52.154;5.430;2023-04-03T13:04:27;4.80;;;1.15;;
70899;SDS011;67902;52.154;5.430;2023-04-03T13:06:54;3.42;;;1.00;;
70899;SDS011;67902;52.154;5.430;2023-04-03T13:11:50;4.13;;;1.13;;
70899;SDS011;67902;52.154;5.430;2023-04-03T13:14:23;5.78;;;1.52;;
70899;SDS011;67902;52.154;5.430;2023-04-03T13:16:56;5.97;;;1.67;;
70899;SDS011;67902;52.154;5.430;2023-04-03T13:19:25;6.80;;;1.77;;
70899;SDS011;67902;52.154;5.430;2023-04-03T13:21:57;6.60;;;1.05;;
70899;SDS011;67902;52.154;5.430;2023-04-03T13:24:29;4.57;;;1.17;;
70899;SDS011;67902;52.154;5.430;2023-04-03T13:26:58;4.50;;;1.35;;
70899;SDS011;67902;52.154;5.430;2023-04-03T13:29:27;3.78;;;0.90;;
70899;SDS011;67902;52.154;5.430;2023-04-03T13:31:59;4.85;;;1.23;;
70899;SDS011;67902;52.154;5.430;2023-04-03T13:34:37;3.70;;;1.23;;
70899;SDS011;67902;52.154;5.430;2023-04-03T13:37:19;4.80;;;1.13;;
70899;SDS011;67902;52.154;5.430;2023-04-03T13:39:56;4.82;;;1.20;;
70899;SDS011;67902;52.154;5.430;2023-04-03T13:42:37;3.95;;;1.20;;
70899;SDS011;67902;52.154;5.430;2023-04-03T13:47:40;5.43;;;1.20;;
70899;SDS011;67902;52.154;5.430;2023-04-03T13:52:42;6.28;;;1.30;;
70899;SDS011;67902;52.154;5.430;2023-04-03T13:55:19;6.93;;;1.33;;
70899;SDS011;67902;52.154;5.430;2023-04-03T13:58:02;5.53;;;1.27;;
70899;SDS011;67902;52.154;5.430;2023-04-03T14:00:37;4.55;;;1.10;;
70899;SDS011;67902;52.154;5.430;2023-04-03T14:03:38;4.50;;;1.33;;
70899;SDS011;67902;52.154;5.430;2023-04-03T14:06:10;4.50;;;1.30;;
70899;SDS011;67902;52.154;5.430;2023-04-03T14:08:39;4.15;;;1.20;;
70899;SDS011;67902;52.154;5.430;2023-04-03T14:11:11;4.60;;;1.15;;
70899;SDS011;67902;52.154;5.430;2023-04-03T14:13:40;5.20;;;1.10;;
70899;SDS011;67902;52.154;5.430;2023-04-03T14:16:07;4.68;;;1.45;;
70899;SDS011;67902;52.154;5.430;2023-04-03T14:21:08;4.65;;;1.38;;
70899;SDS011;67902;52.154;5.430;2023-04-03T14:23:37;4.53;;;1.55;;
70899;SDS011;67902;52.154;5.430;2023-04-03T14:26:04;5.65;;;1.50;;
70899;SDS011;67902;52.154;5.430;2023-04-03T14:28:36;6.25;;;1.50;;
70899;SDS011;67902;52.154;5.430;2023-04-03T14:31:03;4.32;;;1.30;;
70899;SDS011;67902;52.154;5.430;2023-04-03T14:33:29;5.07;;;1.42;;
70899;SDS011;67902;52.154;5.430;2023-04-03T14:36:00;5.00;;;1.38;;
70899;SDS011;67902;52.154;5.430;2023-04-03T14:38:31;5.55;;;1.45;;
70899;SDS011;67902;52.154;5.430;2023-04-03T14:40:58;5.55;;;1.77;;
70899;SDS011;67902;52.154;5.430;2023-04-03T14:43:39;4.40;;;1.30;;
70899;SDS011;67902;52.154;5.430;2023-04-03T14:46:09;6.07;;;1.55;;
70899;SDS011;67902;52.154;5.430;2023-04-03T14:48:39;5.05;;;1.63;;
70899;SDS011;67902;52.154;5.430;2023-04-03T14:51:05;5.90;;;1.60;;
70899;SDS011;67902;52.154;5.430;2023-04-03T14:53:32;6.97;;;1.85;;
70899;SDS011;67902;52.154;5.430;2023-04-03T14:56:11;6.18;;;1.80;;
70899;SDS011;67902;52.154;5.430;2023-04-03T14:58:43;6.90;;;2.05;;
70899;SDS011;67902;52.154;5.430;2023-04-03T15:01:11;5.55;;;1.60;;
70899;SDS011;67902;52.154;5.430;2023-04-03T15:03:38;5.35;;;1.60;;
70899;SDS011;67902;52.154;5.430;2023-04-03T15:06:05;7.65;;;2.03;;
70899;SDS011;67902;52.154;5.430;2023-04-03T15:08:31;6.22;;;1.65;;
70899;SDS011;67902;52.154;5.430;2023-04-03T15:10:58;6.18;;;1.70;;
70899;SDS011;67902;52.154;5.430;2023-04-03T15:13:24;6.53;;;1.77;;
70899;SDS011;67902;52.154;5.430;2023-04-03T15:18:22;6.00;;;1.50;;
70899;SDS011;67902;52.154;5.430;2023-04-03T15:20:54;5.15;;;1.50;;
70899;SDS011;67902;52.154;5.430;2023-04-03T15:23:21;5.25;;;1.52;;
70899;SDS011;67902;52.154;5.430;2023-04-03T15:25:52;5.18;;;1.70;;
70899;SDS011;67902;52.154;5.430;2023-04-03T15:30:54;5.93;;;1.63;;
70899;SDS011;67902;52.154;5.430;2023-04-03T15:33:20;7.85;;;1.73;;
70899;SDS011;67902;52.154;5.430;2023-04-03T15:35:47;5.18;;;1.50;;
70899;SDS011;67902;52.154;5.430;2023-04-03T15:38:14;6.35;;;1.60;;
70899;SDS011;67902;52.154;5.430;2023-04-03T15:40:40;6.90;;;1.63;;
70899;SDS011;67902;52.154;5.430;2023-04-03T15:43:08;6.57;;;1.98;;
70899;SDS011;67902;52.154;5.430;2023-04-03T15:45:36;4.60;;;1.60;;
70899;SDS011;67902;52.154;5.430;2023-04-03T15:48:03;6.15;;;1.60;;
70899;SDS011;67902;52.154;5.430;2023-04-03T15:50:31;6.57;;;1.70;;
70899;SDS011;67902;52.154;5.430;2023-04-03T15:52:59;5.45;;;1.77;;
70899;SDS011;67902;52.154;5.430;2023-04-03T15:55:28;6.47;;;1.90;;
70899;SDS011;67902;52.154;5.430;2023-04-03T15:57:56;7.35;;;2.15;;
70899;SDS011;67902;52.154;5.430;2023-04-03T16:00:23;5.72;;;1.83;;
70899;SDS011;67902;52.154;5.430;2023-04-03T16:02:53;5.45;;;1.77;;
70899;SDS011;67902;52.154;5.430;2023-04-03T16:05:30;6.65;;;1.88;;
70899;SDS011;67902;52.154;5.430;2023-04-03T16:07:58;6.03;;;1.83;;
70899;SDS011;67902;52.154;5.430;2023-04-03T16:10:26;13.52;;;5.25;;
70899;SDS011;67902;52.154;5.430;2023-04-03T16:12:53;7.70;;;2.08;;
70899;SDS011;67902;52.154;5.430;2023-04-03T16:15:19;5.30;;;1.52;;
70899;SDS011;67902;52.154;5.430;2023-04-03T16:17:46;6.70;;;1.65;;
70899;SDS011;67902;52.154;5.430;2023-04-03T16:20:14;4.93;;;1.38;;
70899;SDS011;67902;52.154;5.430;2023-04-03T16:22:40;6.30;;;2.00;;
70899;SDS011;67902;52.154;5.430;2023-04-03T16:25:08;9.98;;;3.72;;
70899;SDS011;67902;52.154;5.430;2023-04-03T16:27:35;10.13;;;2.72;;
70899;SDS011;67902;52.154;5.430;2023-04-03T16:30:02;4.47;;;1.70;;
70899;SDS011;67902;52.154;5.430;2023-04-03T16:32:29;9.15;;;3.20;;
70899;SDS011;67902;52.154;5.430;2023-04-03T16:34:57;5.65;;;1.73;;
70899;SDS011;67902;52.154;5.430;2023-04-03T16:37:24;7.40;;;1.80;;
70899;SDS011;67902;52.154;5.430;2023-04-03T16:39:53;6.20;;;1.58;;
70899;SDS011;67902;52.154;5.430;2023-04-03T16:42:20;6.32;;;1.60;;
70899;SDS011;67902;52.154;5.430;2023-04-03T16:44:46;10.65;;;1.80;;
70899;SDS011;67902;52.154;5.430;2023-04-03T16:47:13;7.70;;;1.95;;
70899;SDS011;67902;52.154;5.430;2023-04-03T16:49:40;5.88;;;1.42;;
70899;SDS011;67902;52.154;5.430;2023-04-03T16:52:06;6.82;;;1.30;;
70899;SDS011;67902;52.154;5.430;2023-04-03T16:54:33;5.43;;;1.38;;
70899;SDS011;67902;52.154;5.430;2023-04-03T16:56:59;5.68;;;1.20;;
70899;SDS011;67902;52.154;5.430;2023-04-03T16:59:26;6.55;;;1.58;;
70899;SDS011;67902;52.154;5.430;2023-04-03T17:01:52;3.25;;;1.00;;
70899;SDS011;67902;52.154;5.430;2023-04-03T17:04:18;5.78;;;1.40;;